sensor_id;sensor_type;location;lat;lon;timestamp;temperature;humidity
13440;DHT22;6792;57.698;11.946;2023-05-07T00:00:22;15.20;30.90
13440;DHT22;6792;57.698;11.946;2023-05-07T00:02:51;15.20;30.90
13440;DHT22;6792;57.698;11.946;2023-05-07T00:05:21;15.10;30.80
13440;DHT22;6792;57.698;11.946;2023-05-07T00:07:50;15.10;30.90
13440;DHT22;6792;57.698;11.946;2023-05-07T00:10:20;15.10;30.80
13440;DHT22;6792;57.698;11.946;2023-05-07T00:12:49;15.00;30.70
13440;DHT22;6792;57.698;11.946;2023-05-07T00:15:19;15.00;30.70
13440;DHT22;6792;57.698;11.946;2023-05-07T00:17:50;15.00;30.70
13440;DHT22;6792;57.698;11.946;2023-05-07T00:20:22;15.00;30.70
13440;DHT22;6792;57.698;11.946;2023-05-07T00:22:51;14.90;30.00
13440;DHT22;6792;57.698;11.946;2023-05-07T00:25:20;14.90;30.60
13440;DHT22;6792;57.698;11.946;2023-05-07T00:27:50;14.80;30.00
13440;DHT22;6792;57.698;11.946;2023-05-07T00:30:19;14.80;30.60
13440;DHT22;6792;57.698;11.946;2023-05-07T00:32:48;14.80;30.60
13440;DHT22;6792;57.698;11.946;2023-05-07T00:35:18;14.80;30.00
13440;DHT22;6792;57.698;11.946;2023-05-07T00:37:47;14.70;30.50
13440;DHT22;6792;57.698;11.946;2023-05-07T00:40:17;14.70;30.60
13440;DHT22;6792;57.698;11.946;2023-05-07T00:42:47;14.60;30.60
13440;DHT22;6792;57.698;11.946;2023-05-07T00:45:19;14.60;30.50
13440;DHT22;6792;57.698;11.946;2023-05-07T00:47:50;14.60;30.60
13440;DHT22;6792;57.698;11.946;2023-05-07T00:50:22;14.60;30.60
13440;DHT22;6792;57.698;11.946;2023-05-07T00:52:54;14.50;30.60
13440;DHT22;6792;57.698;11.946;2023-05-07T00:55:24;14.50;30.60
13440;DHT22;6792;57.698;11.946;2023-05-07T00:57:53;14.40;30.60
13440;DHT22;6792;57.698;11.946;2023-05-07T01:00:25;14.40;30.60
13440;DHT22;6792;57.698;11.946;2023-05-07T01:02:55;14.40;30.60
13440;DHT22;6792;57.698;11.946;2023-05-07T01:05:24;14.40;30.60
13440;DHT22;6792;57.698;11.946;2023-05-07T01:07:55;14.30;30.50
13440;DHT22;6792;57.698;11.946;2023-05-07T01:10:26;14.30;30.50
13440;DHT22;6792;57.698;11.946;2023-05-07T01:12:59;14.30;30.60
13440;DHT22;6792;57.698;11.946;2023-05-07T01:15:29;14.20;30.50
13440;DHT22;6792;57.698;11.946;2023-05-07T01:17:59;14.20;30.50
13440;DHT22;6792;57.698;11.946;2023-05-07T01:20:29;14.20;30.60
13440;DHT22;6792;57.698;11.946;2023-05-07T01:23:02;14.10;30.00
13440;DHT22;6792;57.698;11.946;2023-05-07T01:25:32;14.10;30.60
13440;DHT22;6792;57.698;11.946;2023-05-07T01:28:01;14.10;30.60
13440;DHT22;6792;57.698;11.946;2023-05-07T01:30:30;14.10;30.00
13440;DHT22;6792;57.698;11.946;2023-05-07T01:33:04;14.10;30.60
13440;DHT22;6792;57.698;11.946;2023-05-07T01:35:37;14.00;30.50
13440;DHT22;6792;57.698;11.946;2023-05-07T01:38:08;14.00;30.60
13440;DHT22;6792;57.698;11.946;2023-05-07T01:40:37;13.90;30.60
13440;DHT22;6792;57.698;11.946;2023-05-07T01:43:07;13.90;30.50
13440;DHT22;6792;57.698;11.946;2023-05-07T01:45:37;13.90;30.00
13440;DHT22;6792;57.698;11.946;2023-05-07T01:48:09;13.90;30.00
13440;DHT22;6792;57.698;11.946;2023-05-07T01:50:39;13.90;30.60
13440;DHT22;6792;57.698;11.946;2023-05-07T01:53:09;13.90;30.60
13440;DHT22;6792;57.698;11.946;2023-05-07T01:55:38;13.80;30.50
13440;DHT22;6792;57.698;11.946;2023-05-07T01:58:10;13.80;30.50
13440;DHT22;6792;57.698;11.946;2023-05-07T02:00:39;13.80;30.50
13440;DHT22;6792;57.698;11.946;2023-05-07T02:03:09;13.70;30.40
13440;DHT22;6792;57.698;11.946;2023-05-07T02:05:38;13.70;30.50
13440;DHT22;6792;57.698;11.946;2023-05-07T02:08:07;13.70;30.50
13440;DHT22;6792;57.698;11.946;2023-05-07T02:10:37;13.60;30.60
13440;DHT22;6792;57.698;11.946;2023-05-07T02:13:06;13.60;30.70
13440;DHT22;6792;57.698;11.946;2023-05-07T02:15:35;13.50;30.70
13440;DHT22;6792;57.698;11.946;2023-05-07T02:18:06;13.50;30.70
13440;DHT22;6792;57.698;11.946;2023-05-07T02:20:35;13.50;30.70
13440;DHT22;6792;57.698;11.946;2023-05-07T02:23:04;13.50;30.70
13440;DHT22;6792;57.698;11.946;2023-05-07T02:25:34;13.50;30.70
13440;DHT22;6792;57.698;11.946;2023-05-07T02:28:03;13.50;30.70
13440;DHT22;6792;57.698;11.946;2023-05-07T02:30:32;13.40;30.20
13440;DHT22;6792;57.698;11.946;2023-05-07T02:33:02;13.40;30.80
13440;DHT22;6792;57.698;11.946;2023-05-07T02:35:31;13.30;30.80
13440;DHT22;6792;57.698;11.946;2023-05-07T02:38:00;13.30;30.90
13440;DHT22;6792;57.698;11.946;2023-05-07T02:40:32;13.30;30.90
13440;DHT22;6792;57.698;11.946;2023-05-07T02:43:01;13.20;31.00
13440;DHT22;6792;57.698;11.946;2023-05-07T02:45:31;13.10;30.40
13440;DHT22;6792;57.698;11.946;2023-05-07T02:48:00;13.20;31.20
13440;DHT22;6792;57.698;11.946;2023-05-07T02:50:29;13.10;31.20
13440;DHT22;6792;57.698;11.946;2023-05-07T02:53:00;13.10;31.20
13440;DHT22;6792;57.698;11.946;2023-05-07T02:55:29;13.10;31.30
13440;DHT22;6792;57.698;11.946;2023-05-07T02:57:59;13.10;31.30
13440;DHT22;6792;57.698;11.946;2023-05-07T03:00:28;13.10;31.30
13440;DHT22;6792;57.698;11.946;2023-05-07T03:02:57;13.00;31.30
13440;DHT22;6792;57.698;11.946;2023-05-07T03:05:27;13.00;31.40
13440;DHT22;6792;57.698;11.946;2023-05-07T03:07:59;13.00;31.40
13440;DHT22;6792;57.698;11.946;2023-05-07T03:10:31;13.00;31.50
13440;DHT22;6792;57.698;11.946;2023-05-07T03:13:01;12.90;30.80
13440;DHT22;6792;57.698;11.946;2023-05-07T03:15:31;12.90;31.40
13440;DHT22;6792;57.698;11.946;2023-05-07T03:18:00;12.90;31.40
13440;DHT22;6792;57.698;11.946;2023-05-07T03:20:31;12.90;31.40
13440;DHT22;6792;57.698;11.946;2023-05-07T03:23:00;12.80;31.50
13440;DHT22;6792;57.698;11.946;2023-05-07T03:25:30;12.80;31.50
13440;DHT22;6792;57.698;11.946;2023-05-07T03:27:59;12.70;31.50
13440;DHT22;6792;57.698;11.946;2023-05-07T03:30:28;12.70;31.60
13440;DHT22;6792;57.698;11.946;2023-05-07T03:32:59;12.70;31.70
13440;DHT22;6792;57.698;11.946;2023-05-07T03:35:28;12.60;31.10
13440;DHT22;6792;57.698;11.946;2023-05-07T03:38:00;12.60;31.20
13440;DHT22;6792;57.698;11.946;2023-05-07T03:40:29;12.70;31.80
13440;DHT22;6792;57.698;11.946;2023-05-07T03:42:58;12.70;31.90
13440;DHT22;6792;57.698;11.946;2023-05-07T03:45:28;12.60;31.80
13440;DHT22;6792;57.698;11.946;2023-05-07T03:47:57;12.60;31.30
13440;DHT22;6792;57.698;11.946;2023-05-07T03:50:34;12.60;31.90
13440;DHT22;6792;57.698;11.946;2023-05-07T03:53:03;12.60;32.00
13440;DHT22;6792;57.698;11.946;2023-05-07T03:55:32;12.60;32.00
13440;DHT22;6792;57.698;11.946;2023-05-07T03:58:01;12.60;32.10
13440;DHT22;6792;57.698;11.946;2023-05-07T04:00:30;12.50;32.10
13440;DHT22;6792;57.698;11.946;2023-05-07T04:03:01;12.50;31.60
13440;DHT22;6792;57.698;11.946;2023-05-07T04:05:35;12.50;31.60
13440;DHT22;6792;57.698;11.946;2023-05-07T04:08:04;12.50;32.30
13440;DHT22;6792;57.698;11.946;2023-05-07T04:10:34;12.60;32.20
13440;DHT22;6792;57.698;11.946;2023-05-07T04:13:03;12.60;32.30
13440;DHT22;6792;57.698;11.946;2023-05-07T04:15:32;12.50;32.20
13440;DHT22;6792;57.698;11.946;2023-05-07T04:18:01;12.50;32.30
13440;DHT22;6792;57.698;11.946;2023-05-07T04:20:33;12.40;32.30
13440;DHT22;6792;57.698;11.946;2023-05-07T04:23:02;12.40;32.40
13440;DHT22;6792;57.698;11.946;2023-05-07T04:25:32;12.40;32.40
13440;DHT22;6792;57.698;11.946;2023-05-07T04:28:01;12.50;32.40
13440;DHT22;6792;57.698;11.946;2023-05-07T04:30:33;12.50;32.50
13440;DHT22;6792;57.698;11.946;2023-05-07T04:33:03;12.40;31.90
13440;DHT22;6792;57.698;11.946;2023-05-07T04:35:32;12.40;32.50
13440;DHT22;6792;57.698;11.946;2023-05-07T04:38:02;12.50;32.50
13440;DHT22;6792;57.698;11.946;2023-05-07T04:40:31;12.40;32.50
13440;DHT22;6792;57.698;11.946;2023-05-07T04:43:01;12.50;32.50
13440;DHT22;6792;57.698;11.946;2023-05-07T04:45:31;12.50;32.50
13440;DHT22;6792;57.698;11.946;2023-05-07T04:48:00;12.50;32.50
13440;DHT22;6792;57.698;11.946;2023-05-07T04:50:30;12.50;32.50
13440;DHT22;6792;57.698;11.946;2023-05-07T04:52:59;12.50;32.60
13440;DHT22;6792;57.698;11.946;2023-05-07T04:55:30;12.60;32.00
13440;DHT22;6792;57.698;11.946;2023-05-07T04:57:59;12.60;32.60
13440;DHT22;6792;57.698;11.946;2023-05-07T05:00:29;12.60;32.50
13440;DHT22;6792;57.698;11.946;2023-05-07T05:02:59;12.60;32.50
13440;DHT22;6792;57.698;11.946;2023-05-07T05:05:28;10.80;31.10
13440;DHT22;6792;57.698;11.946;2023-05-07T05:07:57;12.60;32.50
13440;DHT22;6792;57.698;11.946;2023-05-07T05:10:27;12.60;32.50
13440;DHT22;6792;57.698;11.946;2023-05-07T05:12:56;12.70;32.50
13440;DHT22;6792;57.698;11.946;2023-05-07T05:15:25;12.80;32.50
13440;DHT22;6792;57.698;11.946;2023-05-07T05:17:54;12.80;32.40
13440;DHT22;6792;57.698;11.946;2023-05-07T05:20:24;12.80;32.40
13440;DHT22;6792;57.698;11.946;2023-05-07T05:22:55;12.90;32.40
13440;DHT22;6792;57.698;11.946;2023-05-07T05:25:25;12.90;32.30
13440;DHT22;6792;57.698;11.946;2023-05-07T05:27:55;13.00;32.30
13440;DHT22;6792;57.698;11.946;2023-05-07T05:30:24;13.00;32.20
13440;DHT22;6792;57.698;11.946;2023-05-07T05:32:53;13.10;32.30
13440;DHT22;6792;57.698;11.946;2023-05-07T05:35:22;13.10;32.20
13440;DHT22;6792;57.698;11.946;2023-05-07T05:37:54;13.20;32.20
13440;DHT22;6792;57.698;11.946;2023-05-07T05:40:23;13.20;32.10
13440;DHT22;6792;57.698;11.946;2023-05-07T05:42:55;13.20;32.20
13440;DHT22;6792;57.698;11.946;2023-05-07T05:45:25;13.20;31.60
13440;DHT22;6792;57.698;11.946;2023-05-07T05:47:56;13.20;32.10
13440;DHT22;6792;57.698;11.946;2023-05-07T05:50:25;13.30;31.60
13440;DHT22;6792;57.698;11.946;2023-05-07T05:52:55;13.40;32.20
13440;DHT22;6792;57.698;11.946;2023-05-07T05:55:25;13.40;32.10
13440;DHT22;6792;57.698;11.946;2023-05-07T05:57:54;13.50;32.00
13440;DHT22;6792;57.698;11.946;2023-05-07T06:00:24;13.50;32.00
13440;DHT22;6792;57.698;11.946;2023-05-07T06:02:54;13.60;32.00
13440;DHT22;6792;57.698;11.946;2023-05-07T06:05:23;13.60;31.90
13440;DHT22;6792;57.698;11.946;2023-05-07T06:07:53;13.60;31.90
13440;DHT22;6792;57.698;11.946;2023-05-07T06:10:22;13.70;31.80
13440;DHT22;6792;57.698;11.946;2023-05-07T06:12:51;13.70;31.80
13440;DHT22;6792;57.698;11.946;2023-05-07T06:15:21;13.80;31.80
13440;DHT22;6792;57.698;11.946;2023-05-07T06:17:50;13.80;31.80
13440;DHT22;6792;57.698;11.946;2023-05-07T06:20:19;13.90;31.20
13440;DHT22;6792;57.698;11.946;2023-05-07T06:22:51;14.00;31.70
13440;DHT22;6792;57.698;11.946;2023-05-07T06:25:20;14.00;31.70
13440;DHT22;6792;57.698;11.946;2023-05-07T06:27:49;14.10;31.70
13440;DHT22;6792;57.698;11.946;2023-05-07T06:30:19;14.20;31.60
13440;DHT22;6792;57.698;11.946;2023-05-07T06:32:51;14.20;31.50
13440;DHT22;6792;57.698;11.946;2023-05-07T06:35:20;14.30;31.50
13440;DHT22;6792;57.698;11.946;2023-05-07T06:37:50;14.30;31.40
13440;DHT22;6792;57.698;11.946;2023-05-07T06:40:19;14.40;31.40
13440;DHT22;6792;57.698;11.946;2023-05-07T06:42:51;14.40;31.20
13440;DHT22;6792;57.698;11.946;2023-05-07T06:45:20;14.40;31.20
13440;DHT22;6792;57.698;11.946;2023-05-07T06:47:53;14.50;30.60
13440;DHT22;6792;57.698;11.946;2023-05-07T06:50:25;14.60;31.10
13440;DHT22;6792;57.698;11.946;2023-05-07T06:52:55;14.70;31.00
13440;DHT22;6792;57.698;11.946;2023-05-07T06:55:24;14.80;31.00
13440;DHT22;6792;57.698;11.946;2023-05-07T06:57:53;14.90;30.90
13440;DHT22;6792;57.698;11.946;2023-05-07T07:00:25;15.20;30.80
13440;DHT22;6792;57.698;11.946;2023-05-07T07:02:56;15.30;30.70
13440;DHT22;6792;57.698;11.946;2023-05-07T07:05:25;15.50;30.50
13440;DHT22;6792;57.698;11.946;2023-05-07T07:07:54;15.70;30.30
13440;DHT22;6792;57.698;11.946;2023-05-07T07:10:25;15.90;30.10
13440;DHT22;6792;57.698;11.946;2023-05-07T07:12:54;16.10;30.00
13440;DHT22;6792;57.698;11.946;2023-05-07T07:15:23;16.20;29.80
13440;DHT22;6792;57.698;11.946;2023-05-07T07:17:53;16.30;29.70
13440;DHT22;6792;57.698;11.946;2023-05-07T07:20:24;16.40;29.50
13440;DHT22;6792;57.698;11.946;2023-05-07T07:22:53;16.50;29.00
13440;DHT22;6792;57.698;11.946;2023-05-07T07:27:51;16.70;28.80
13440;DHT22;6792;57.698;11.946;2023-05-07T07:30:21;16.70;29.20
13440;DHT22;6792;57.698;11.946;2023-05-07T07:32:50;16.70;29.10
13440;DHT22;6792;57.698;11.946;2023-05-07T07:35:20;16.70;29.10
13440;DHT22;6792;57.698;11.946;2023-05-07T07:37:49;16.70;29.00
13440;DHT22;6792;57.698;11.946;2023-05-07T07:40:19;16.80;28.90
13440;DHT22;6792;57.698;11.946;2023-05-07T07:42:48;16.80;28.90
13440;DHT22;6792;57.698;11.946;2023-05-07T07:45:18;16.80;28.70
13440;DHT22;6792;57.698;11.946;2023-05-07T07:47:47;16.90;28.70
13440;DHT22;6792;57.698;11.946;2023-05-07T07:50:17;16.90;28.60
13440;DHT22;6792;57.698;11.946;2023-05-07T07:52:47;16.90;28.50
13440;DHT22;6792;57.698;11.946;2023-05-07T07:55:19;16.90;28.40
13440;DHT22;6792;57.698;11.946;2023-05-07T07:57:49;17.00;28.30
13440;DHT22;6792;57.698;11.946;2023-05-07T08:00:19;17.00;28.20
13440;DHT22;6792;57.698;11.946;2023-05-07T08:02:48;17.00;28.00
13440;DHT22;6792;57.698;11.946;2023-05-07T08:05:18;17.00;27.90
13440;DHT22;6792;57.698;11.946;2023-05-07T08:07:51;17.10;27.80
13440;DHT22;6792;57.698;11.946;2023-05-07T08:10:21;17.10;27.30
13440;DHT22;6792;57.698;11.946;2023-05-07T08:12:50;17.10;27.70
13440;DHT22;6792;57.698;11.946;2023-05-07T08:15:20;17.20;27.50
13440;DHT22;6792;57.698;11.946;2023-05-07T08:17:49;17.30;27.50
13440;DHT22;6792;57.698;11.946;2023-05-07T08:20:18;17.30;27.30
13440;DHT22;6792;57.698;11.946;2023-05-07T08:22:48;17.40;27.30
13440;DHT22;6792;57.698;11.946;2023-05-07T08:25:20;17.40;27.20
13440;DHT22;6792;57.698;11.946;2023-05-07T08:27:49;17.50;27.10
13440;DHT22;6792;57.698;11.946;2023-05-07T08:30:18;17.50;27.00
13440;DHT22;6792;57.698;11.946;2023-05-07T08:32:47;17.50;26.80
13440;DHT22;6792;57.698;11.946;2023-05-07T08:35:18;17.50;26.70
13440;DHT22;6792;57.698;11.946;2023-05-07T08:37:50;17.50;26.60
13440;DHT22;6792;57.698;11.946;2023-05-07T08:40:19;17.50;26.60
13440;DHT22;6792;57.698;11.946;2023-05-07T08:42:52;17.50;26.40
13440;DHT22;6792;57.698;11.946;2023-05-07T08:45:21;17.60;26.40
13440;DHT22;6792;57.698;11.946;2023-05-07T08:47:55;17.60;26.30
13440;DHT22;6792;57.698;11.946;2023-05-07T08:50:24;17.60;26.20
13440;DHT22;6792;57.698;11.946;2023-05-07T08:52:54;17.70;26.20
13440;DHT22;6792;57.698;11.946;2023-05-07T08:55:25;17.70;26.10
13440;DHT22;6792;57.698;11.946;2023-05-07T08:57:54;17.80;26.10
13440;DHT22;6792;57.698;11.946;2023-05-07T09:00:25;17.80;25.50
13440;DHT22;6792;57.698;11.946;2023-05-07T09:02:54;17.80;25.90
13440;DHT22;6792;57.698;11.946;2023-05-07T09:05:24;17.90;25.80
13440;DHT22;6792;57.698;11.946;2023-05-07T09:07:53;17.90;25.70
13440;DHT22;6792;57.698;11.946;2023-05-07T09:10:23;17.90;25.60
13440;DHT22;6792;57.698;11.946;2023-05-07T09:12:52;18.00;25.60
13440;DHT22;6792;57.698;11.946;2023-05-07T09:15:22;18.10;25.50
13440;DHT22;6792;57.698;11.946;2023-05-07T09:17:51;18.10;25.40
13440;DHT22;6792;57.698;11.946;2023-05-07T09:20:20;18.20;25.30
13440;DHT22;6792;57.698;11.946;2023-05-07T09:22:50;18.20;25.20
13440;DHT22;6792;57.698;11.946;2023-05-07T09:25:28;18.20;24.70
13440;DHT22;6792;57.698;11.946;2023-05-07T09:27:58;18.30;25.10
13440;DHT22;6792;57.698;11.946;2023-05-07T09:30:31;18.30;25.10
13440;DHT22;6792;57.698;11.946;2023-05-07T09:33:07;18.30;24.60
13440;DHT22;6792;57.698;11.946;2023-05-07T09:35:37;18.40;25.10
13440;DHT22;6792;57.698;11.946;2023-05-07T09:38:10;18.40;24.50
13440;DHT22;6792;57.698;11.946;2023-05-07T09:40:45;18.40;24.90
13440;DHT22;6792;57.698;11.946;2023-05-07T09:43:16;18.50;24.90
13440;DHT22;6792;57.698;11.946;2023-05-07T09:45:49;18.50;24.60
13440;DHT22;6792;57.698;11.946;2023-05-07T09:48:23;18.50;24.00
13440;DHT22;6792;57.698;11.946;2023-05-07T09:51:01;18.60;24.00
13440;DHT22;6792;57.698;11.946;2023-05-07T09:53:38;18.70;24.60
13440;DHT22;6792;57.698;11.946;2023-05-07T09:56:06;18.70;23.90
13440;DHT22;6792;57.698;11.946;2023-05-07T09:58:37;18.70;24.20
13440;DHT22;6792;57.698;11.946;2023-05-07T10:04:02;18.80;23.50
13440;DHT22;6792;57.698;11.946;2023-05-07T10:06:35;18.80;24.00
13440;DHT22;6792;57.698;11.946;2023-05-07T10:09:06;18.80;23.30
13440;DHT22;6792;57.698;11.946;2023-05-07T10:11:37;18.80;23.70
13440;DHT22;6792;57.698;11.946;2023-05-07T10:14:07;18.90;23.70
13440;DHT22;6792;57.698;11.946;2023-05-07T10:16:37;18.90;23.70
13440;DHT22;6792;57.698;11.946;2023-05-07T10:19:08;18.90;23.60
13440;DHT22;6792;57.698;11.946;2023-05-07T10:21:54;18.90;23.10
13440;DHT22;6792;57.698;11.946;2023-05-07T10:24:30;18.90;23.10
13440;DHT22;6792;57.698;11.946;2023-05-07T10:27:00;18.90;23.50
13440;DHT22;6792;57.698;11.946;2023-05-07T10:29:42;19.00;23.60
13440;DHT22;6792;57.698;11.946;2023-05-07T10:32:33;19.00;22.90
13440;DHT22;6792;57.698;11.946;2023-05-07T10:35:09;19.00;22.90
13440;DHT22;6792;57.698;11.946;2023-05-07T10:37:37;19.10;23.30
13440;DHT22;6792;57.698;11.946;2023-05-07T10:40:17;19.20;23.30
13440;DHT22;6792;57.698;11.946;2023-05-07T10:43:03;19.20;23.30
13440;DHT22;6792;57.698;11.946;2023-05-07T10:45:35;19.30;22.70
13440;DHT22;6792;57.698;11.946;2023-05-07T10:48:12;19.20;22.70
13440;DHT22;6792;57.698;11.946;2023-05-07T10:50:47;19.30;22.60
13440;DHT22;6792;57.698;11.946;2023-05-07T10:53:24;19.40;23.20
13440;DHT22;6792;57.698;11.946;2023-05-07T10:59:31;19.50;22.70
13440;DHT22;6792;57.698;11.946;2023-05-07T11:02:25;19.50;22.70
13440;DHT22;6792;57.698;11.946;2023-05-07T11:05:22;19.50;22.80
13440;DHT22;6792;57.698;11.946;2023-05-07T11:07:56;19.50;22.70
13440;DHT22;6792;57.698;11.946;2023-05-07T11:13:18;19.70;22.60
13440;DHT22;6792;57.698;11.946;2023-05-07T11:15:49;19.70;22.50
13440;DHT22;6792;57.698;11.946;2023-05-07T11:18:19;19.80;22.90
13440;DHT22;6792;57.698;11.946;2023-05-07T11:20:58;19.80;22.90
13440;DHT22;6792;57.698;11.946;2023-05-07T11:29:17;20.10;22.40
13440;DHT22;6792;57.698;11.946;2023-05-07T11:31:50;20.20;22.70
13440;DHT22;6792;57.698;11.946;2023-05-07T11:34:23;20.30;22.10
13440;DHT22;6792;57.698;11.946;2023-05-07T11:36:54;20.40;22.00
13440;DHT22;6792;57.698;11.946;2023-05-07T11:39:26;20.50;22.40
13440;DHT22;6792;57.698;11.946;2023-05-07T11:41:56;20.60;22.30
13440;DHT22;6792;57.698;11.946;2023-05-07T11:44:27;20.70;22.30
13440;DHT22;6792;57.698;11.946;2023-05-07T11:46:57;20.80;22.30
13440;DHT22;6792;57.698;11.946;2023-05-07T11:49:41;20.80;22.40
13440;DHT22;6792;57.698;11.946;2023-05-07T11:52:15;20.90;21.90
13440;DHT22;6792;57.698;11.946;2023-05-07T11:54:49;20.10;21.60
13440;DHT22;6792;57.698;11.946;2023-05-07T11:57:21;20.90;22.40
13440;DHT22;6792;57.698;11.946;2023-05-07T11:59:59;21.00;22.00
13440;DHT22;6792;57.698;11.946;2023-05-07T12:02:29;21.10;22.40
13440;DHT22;6792;57.698;11.946;2023-05-07T12:05:00;21.20;22.30
13440;DHT22;6792;57.698;11.946;2023-05-07T12:07:30;21.30;22.40
13440;DHT22;6792;57.698;11.946;2023-05-07T12:10:06;21.40;22.30
13440;DHT22;6792;57.698;11.946;2023-05-07T12:12:40;21.50;22.20
13440;DHT22;6792;57.698;11.946;2023-05-07T12:15:11;21.60;22.10
13440;DHT22;6792;57.698;11.946;2023-05-07T12:17:44;21.70;22.20
13440;DHT22;6792;57.698;11.946;2023-05-07T12:20:18;21.80;22.00
13440;DHT22;6792;57.698;11.946;2023-05-07T12:22:50;21.90;21.90
13440;DHT22;6792;57.698;11.946;2023-05-07T12:25:20;22.10;21.90
13440;DHT22;6792;57.698;11.946;2023-05-07T12:27:58;22.20;21.80
13440;DHT22;6792;57.698;11.946;2023-05-07T12:30:29;22.30;21.80
13440;DHT22;6792;57.698;11.946;2023-05-07T12:32:58;22.50;21.70
13440;DHT22;6792;57.698;11.946;2023-05-07T12:35:28;22.60;21.70
13440;DHT22;6792;57.698;11.946;2023-05-07T12:37:58;22.80;21.70
13440;DHT22;6792;57.698;11.946;2023-05-07T12:40:40;22.90;21.10
13440;DHT22;6792;57.698;11.946;2023-05-07T12:43:24;23.10;21.50
13440;DHT22;6792;57.698;11.946;2023-05-07T12:45:58;23.30;20.80
13440;DHT22;6792;57.698;11.946;2023-05-07T12:48:27;23.50;20.90
13440;DHT22;6792;57.698;11.946;2023-05-07T12:53:26;23.80;20.60
13440;DHT22;6792;57.698;11.946;2023-05-07T12:55:58;24.00;20.50
13440;DHT22;6792;57.698;11.946;2023-05-07T12:58:29;24.30;21.00
13440;DHT22;6792;57.698;11.946;2023-05-07T13:01:03;24.40;20.50
13440;DHT22;6792;57.698;11.946;2023-05-07T13:03:34;24.60;20.40
13440;DHT22;6792;57.698;11.946;2023-05-07T13:06:07;24.80;20.50
13440;DHT22;6792;57.698;11.946;2023-05-07T13:08:38;25.00;20.40
13440;DHT22;6792;57.698;11.946;2023-05-07T13:11:10;25.20;20.40
13440;DHT22;6792;57.698;11.946;2023-05-07T13:13:42;25.50;20.50
13440;DHT22;6792;57.698;11.946;2023-05-07T13:16:12;26.00;20.70
13440;DHT22;6792;57.698;11.946;2023-05-07T13:18:41;26.80;20.80
13440;DHT22;6792;57.698;11.946;2023-05-07T13:21:13;27.90;21.20
13440;DHT22;6792;57.698;11.946;2023-05-07T13:23:42;29.10;21.00
13440;DHT22;6792;57.698;11.946;2023-05-07T13:26:13;30.40;20.70
13440;DHT22;6792;57.698;11.946;2023-05-07T13:28:42;31.60;20.20
13440;DHT22;6792;57.698;11.946;2023-05-07T13:31:13;32.70;19.30
13440;DHT22;6792;57.698;11.946;2023-05-07T13:33:42;34.00;19.30
13440;DHT22;6792;57.698;11.946;2023-05-07T13:36:17;35.00;18.70
13440;DHT22;6792;57.698;11.946;2023-05-07T13:38:50;36.00;18.30
13440;DHT22;6792;57.698;11.946;2023-05-07T13:41:20;36.90;17.80
13440;DHT22;6792;57.698;11.946;2023-05-07T13:43:52;37.60;16.90
13440;DHT22;6792;57.698;11.946;2023-05-07T13:46:22;38.50;17.10
13440;DHT22;6792;57.698;11.946;2023-05-07T13:48:57;39.30;16.80
13440;DHT22;6792;57.698;11.946;2023-05-07T13:51:27;39.90;16.40
13440;DHT22;6792;57.698;11.946;2023-05-07T13:53:56;40.40;16.00
13440;DHT22;6792;57.698;11.946;2023-05-07T13:56:29;40.70;15.70
13440;DHT22;6792;57.698;11.946;2023-05-07T13:59:00;41.20;15.60
13440;DHT22;6792;57.698;11.946;2023-05-07T14:01:30;41.50;15.20
13440;DHT22;6792;57.698;11.946;2023-05-07T14:03:59;41.20;14.60
13440;DHT22;6792;57.698;11.946;2023-05-07T14:06:29;40.10;14.20
13440;DHT22;6792;57.698;11.946;2023-05-07T14:08:59;39.00;14.40
13440;DHT22;6792;57.698;11.946;2023-05-07T14:11:28;37.80;14.40
13440;DHT22;6792;57.698;11.946;2023-05-07T14:13:59;36.70;14.10
13440;DHT22;6792;57.698;11.946;2023-05-07T14:16:30;35.80;14.70
13440;DHT22;6792;57.698;11.946;2023-05-07T14:19:02;34.80;15.00
13440;DHT22;6792;57.698;11.946;2023-05-07T14:21:34;33.90;14.60
13440;DHT22;6792;57.698;11.946;2023-05-07T14:24:04;33.20;15.30
13440;DHT22;6792;57.698;11.946;2023-05-07T14:26:34;32.50;15.50
13440;DHT22;6792;57.698;11.946;2023-05-07T14:29:03;31.80;15.80
13440;DHT22;6792;57.698;11.946;2023-05-07T14:31:34;31.10;15.90
13440;DHT22;6792;57.698;11.946;2023-05-07T14:34:03;30.50;16.20
13440;DHT22;6792;57.698;11.946;2023-05-07T14:36:32;30.00;16.50
13440;DHT22;6792;57.698;11.946;2023-05-07T14:39:02;29.50;16.80
13440;DHT22;6792;57.698;11.946;2023-05-07T14:41:34;29.00;17.00
13440;DHT22;6792;57.698;11.946;2023-05-07T14:44:03;28.60;17.20
13440;DHT22;6792;57.698;11.946;2023-05-07T14:46:35;28.10;16.90
13440;DHT22;6792;57.698;11.946;2023-05-07T14:49:06;27.80;17.60
13440;DHT22;6792;57.698;11.946;2023-05-07T14:51:36;27.40;17.40
13440;DHT22;6792;57.698;11.946;2023-05-07T14:54:06;27.00;18.60
13440;DHT22;6792;57.698;11.946;2023-05-07T14:56:36;26.70;18.40
13440;DHT22;6792;57.698;11.946;2023-05-07T14:59:06;26.50;18.70
13440;DHT22;6792;57.698;11.946;2023-05-07T15:01:36;26.20;18.80
13440;DHT22;6792;57.698;11.946;2023-05-07T15:04:07;25.90;18.60
13440;DHT22;6792;57.698;11.946;2023-05-07T15:06:39;25.70;19.20
13440;DHT22;6792;57.698;11.946;2023-05-07T15:09:08;25.50;19.40
13440;DHT22;6792;57.698;11.946;2023-05-07T15:11:38;25.30;19.70
13440;DHT22;6792;57.698;11.946;2023-05-07T15:14:07;25.10;19.80
13440;DHT22;6792;57.698;11.946;2023-05-07T15:16:36;24.80;20.00
13440;DHT22;6792;57.698;11.946;2023-05-07T15:19:08;24.70;20.30
13440;DHT22;6792;57.698;11.946;2023-05-07T15:21:40;24.50;20.50
13440;DHT22;6792;57.698;11.946;2023-05-07T15:24:21;24.30;20.60
13440;DHT22;6792;57.698;11.946;2023-05-07T15:26:51;24.00;20.50
13440;DHT22;6792;57.698;11.946;2023-05-07T15:29:31;23.90;21.10
13440;DHT22;6792;57.698;11.946;2023-05-07T15:32:00;23.70;21.30
13440;DHT22;6792;57.698;11.946;2023-05-07T15:34:29;23.50;21.50
13440;DHT22;6792;57.698;11.946;2023-05-07T15:36:59;23.40;21.70
13440;DHT22;6792;57.698;11.946;2023-05-07T15:39:28;23.20;21.90
13440;DHT22;6792;57.698;11.946;2023-05-07T15:41:58;23.10;22.10
13440;DHT22;6792;57.698;11.946;2023-05-07T15:44:27;23.10;22.40
13440;DHT22;6792;57.698;11.946;2023-05-07T15:46:59;23.00;22.50
13440;DHT22;6792;57.698;11.946;2023-05-07T15:49:29;22.90;22.60
13440;DHT22;6792;57.698;11.946;2023-05-07T15:51:58;22.70;22.20
13440;DHT22;6792;57.698;11.946;2023-05-07T15:54:27;22.70;22.80
13440;DHT22;6792;57.698;11.946;2023-05-07T15:56:57;22.60;22.90
13440;DHT22;6792;57.698;11.946;2023-05-07T15:59:28;22.50;23.00
13440;DHT22;6792;57.698;11.946;2023-05-07T16:01:58;22.50;23.10
13440;DHT22;6792;57.698;11.946;2023-05-07T16:04:30;22.40;23.20
13440;DHT22;6792;57.698;11.946;2023-05-07T16:07:00;22.30;23.30
13440;DHT22;6792;57.698;11.946;2023-05-07T16:09:29;22.30;23.50
13440;DHT22;6792;57.698;11.946;2023-05-07T16:12:00;22.20;23.90